sensor_id;sensor_type;location;lat;lon;timestamp;temperature;humidity
7218;DHT22;3650;53.580;10.094;2023-06-26T00:00:05;22.50;82.20
7218;DHT22;3650;53.580;10.094;2023-06-26T00:02:33;22.50;81.40
7218;DHT22;3650;53.580;10.094;2023-06-26T00:05:00;22.50;81.00
7218;DHT22;3650;53.580;10.094;2023-06-26T00:07:28;22.40;80.70
7218;DHT22;3650;53.580;10.094;2023-06-26T00:09:56;22.40;81.60
7218;DHT22;3650;53.580;10.094;2023-06-26T00:12:24;22.40;81.30
7218;DHT22;3650;53.580;10.094;2023-06-26T00:14:51;22.40;80.90
7218;DHT22;3650;53.580;10.094;2023-06-26T00:17:18;22.40;81.80
7218;DHT22;3650;53.580;10.094;2023-06-26T00:19:45;22.40;81.30
7218;DHT22;3650;53.580;10.094;2023-06-26T00:22:12;22.30;81.20
7218;DHT22;3650;53.580;10.094;2023-06-26T00:24:39;22.30;81.60
7218;DHT22;3650;53.580;10.094;2023-06-26T00:27:06;22.30;81.10
7218;DHT22;3650;53.580;10.094;2023-06-26T00:29:34;22.30;81.20
7218;DHT22;3650;53.580;10.094;2023-06-26T00:32:02;22.30;82.10
7218;DHT22;3650;53.580;10.094;2023-06-26T00:34:29;22.30;82.10
7218;DHT22;3650;53.580;10.094;2023-06-26T00:36:57;22.20;82.50
7218;DHT22;3650;53.580;10.094;2023-06-26T00:39:24;22.20;83.90
7218;DHT22;3650;53.580;10.094;2023-06-26T00:41:52;22.20;83.90
7218;DHT22;3650;53.580;10.094;2023-06-26T00:44:20;22.20;83.90
7218;DHT22;3650;53.580;10.094;2023-06-26T00:46:49;22.10;84.30
7218;DHT22;3650;53.580;10.094;2023-06-26T00:49:16;22.10;84.30
7218;DHT22;3650;53.580;10.094;2023-06-26T00:51:43;22.10;85.20
7218;DHT22;3650;53.580;10.094;2023-06-26T00:54:11;22.10;84.90
7218;DHT22;3650;53.580;10.094;2023-06-26T00:56:37;22.10;84.80
7218;DHT22;3650;53.580;10.094;2023-06-26T00:59:05;22.10;84.20
7218;DHT22;3650;53.580;10.094;2023-06-26T01:01:32;22.10;83.80
7218;DHT22;3650;53.580;10.094;2023-06-26T01:04:00;22.00;83.70
7218;DHT22;3650;53.580;10.094;2023-06-26T01:06:28;22.00;83.70
7218;DHT22;3650;53.580;10.094;2023-06-26T01:08:58;22.00;83.80
7218;DHT22;3650;53.580;10.094;2023-06-26T01:11:26;22.00;83.70
7218;DHT22;3650;53.580;10.094;2023-06-26T01:13:53;22.00;83.70
7218;DHT22;3650;53.580;10.094;2023-06-26T01:16:22;21.90;83.60
7218;DHT22;3650;53.580;10.094;2023-06-26T01:18:50;21.90;83.60
7218;DHT22;3650;53.580;10.094;2023-06-26T01:21:19;21.90;84.70
7218;DHT22;3650;53.580;10.094;2023-06-26T01:23:56;21.90;84.40
7218;DHT22;3650;53.580;10.094;2023-06-26T01:26:29;21.90;84.30
7218;DHT22;3650;53.580;10.094;2023-06-26T01:28:58;21.90;84.50
7218;DHT22;3650;53.580;10.094;2023-06-26T01:31:28;21.90;84.10
7218;DHT22;3650;53.580;10.094;2023-06-26T01:33:58;21.90;83.60
7218;DHT22;3650;53.580;10.094;2023-06-26T01:36:26;21.90;83.60
7218;DHT22;3650;53.580;10.094;2023-06-26T01:38:53;21.80;84.60
7218;DHT22;3650;53.580;10.094;2023-06-26T01:41:20;21.80;83.50
7218;DHT22;3650;53.580;10.094;2023-06-26T01:44:01;21.80;83.50
7218;DHT22;3650;53.580;10.094;2023-06-26T01:46:36;21.80;83.50
7218;DHT22;3650;53.580;10.094;2023-06-26T01:49:08;21.80;84.60
7218;DHT22;3650;53.580;10.094;2023-06-26T01:51:41;21.70;84.90
7218;DHT22;3650;53.580;10.094;2023-06-26T01:54:11;21.70;83.90
7218;DHT22;3650;53.580;10.094;2023-06-26T01:56:40;21.70;84.50
7218;DHT22;3650;53.580;10.094;2023-06-26T01:59:11;21.70;83.50
7218;DHT22;3650;53.580;10.094;2023-06-26T02:01:39;21.70;83.50
7218;DHT22;3650;53.580;10.094;2023-06-26T02:04:06;21.70;83.50
7218;DHT22;3650;53.580;10.094;2023-06-26T02:06:34;21.70;83.50
7218;DHT22;3650;53.580;10.094;2023-06-26T02:09:01;21.70;83.50
7218;DHT22;3650;53.580;10.094;2023-06-26T02:11:29;21.70;83.50
7218;DHT22;3650;53.580;10.094;2023-06-26T02:13:56;21.60;83.40
7218;DHT22;3650;53.580;10.094;2023-06-26T02:16:24;21.60;83.40
7218;DHT22;3650;53.580;10.094;2023-06-26T02:18:51;21.60;84.10
7218;DHT22;3650;53.580;10.094;2023-06-26T02:21:18;21.60;85.60
7218;DHT22;3650;53.580;10.094;2023-06-26T02:23:45;21.60;85.60
7218;DHT22;3650;53.580;10.094;2023-06-26T02:26:12;21.50;86.00
7218;DHT22;3650;53.580;10.094;2023-06-26T02:28:38;21.50;86.30
7218;DHT22;3650;53.580;10.094;2023-06-26T02:31:05;21.50;86.70
7218;DHT22;3650;53.580;10.094;2023-06-26T02:33:33;21.50;87.30
7218;DHT22;3650;53.580;10.094;2023-06-26T02:36:00;21.50;87.10
7218;DHT22;3650;53.580;10.094;2023-06-26T02:38:27;21.50;87.10
7218;DHT22;3650;53.580;10.094;2023-06-26T02:40:54;21.50;86.70
7218;DHT22;3650;53.580;10.094;2023-06-26T02:43:21;21.50;86.40
7218;DHT22;3650;53.580;10.094;2023-06-26T02:45:47;21.50;86.20
7218;DHT22;3650;53.580;10.094;2023-06-26T02:48:14;21.40;86.30
7218;DHT22;3650;53.580;10.094;2023-06-26T02:50:42;21.40;86.50
7218;DHT22;3650;53.580;10.094;2023-06-26T02:53:11;21.40;87.00
7218;DHT22;3650;53.580;10.094;2023-06-26T02:55:38;21.30;87.80
7218;DHT22;3650;53.580;10.094;2023-06-26T02:58:05;21.30;88.40
7218;DHT22;3650;53.580;10.094;2023-06-26T03:00:32;21.30;88.60
7218;DHT22;3650;53.580;10.094;2023-06-26T03:02:58;21.30;88.20
7218;DHT22;3650;53.580;10.094;2023-06-26T03:05:25;21.30;87.80
7218;DHT22;3650;53.580;10.094;2023-06-26T03:07:53;21.30;88.30
7218;DHT22;3650;53.580;10.094;2023-06-26T03:10:20;21.30;89.00
7218;DHT22;3650;53.580;10.094;2023-06-26T03:12:47;21.30;89.00
7218;DHT22;3650;53.580;10.094;2023-06-26T03:15:14;21.30;89.50
7218;DHT22;3650;53.580;10.094;2023-06-26T03:17:41;21.20;89.40
7218;DHT22;3650;53.580;10.094;2023-06-26T03:20:08;21.30;89.50
7218;DHT22;3650;53.580;10.094;2023-06-26T03:22:35;21.30;89.10
7218;DHT22;3650;53.580;10.094;2023-06-26T03:25:04;21.30;88.90
7218;DHT22;3650;53.580;10.094;2023-06-26T03:27:31;21.30;88.80
7218;DHT22;3650;53.580;10.094;2023-06-26T03:29:58;21.30;88.50
7218;DHT22;3650;53.580;10.094;2023-06-26T03:32:24;21.30;89.00
7218;DHT22;3650;53.580;10.094;2023-06-26T03:34:51;21.30;88.40
7218;DHT22;3650;53.580;10.094;2023-06-26T03:37:19;21.30;88.50
7218;DHT22;3650;53.580;10.094;2023-06-26T03:39:46;21.30;88.50
7218;DHT22;3650;53.580;10.094;2023-06-26T03:42:14;21.40;88.40
7218;DHT22;3650;53.580;10.094;2023-06-26T03:44:41;21.40;88.00
7218;DHT22;3650;53.580;10.094;2023-06-26T03:47:08;21.40;89.00
7218;DHT22;3650;53.580;10.094;2023-06-26T03:49:34;21.40;88.20
7218;DHT22;3650;53.580;10.094;2023-06-26T03:52:01;21.40;86.70
7218;DHT22;3650;53.580;10.094;2023-06-26T03:54:28;21.40;86.60
7218;DHT22;3650;53.580;10.094;2023-06-26T03:56:58;21.40;87.50
7218;DHT22;3650;53.580;10.094;2023-06-26T03:59:26;21.40;87.10
7218;DHT22;3650;53.580;10.094;2023-06-26T04:01:52;21.40;85.90
7218;DHT22;3650;53.580;10.094;2023-06-26T04:04:19;21.50;85.30
7218;DHT22;3650;53.580;10.094;2023-06-26T04:06:46;21.50;85.90
7218;DHT22;3650;53.580;10.094;2023-06-26T04:09:13;21.50;85.80
7218;DHT22;3650;53.580;10.094;2023-06-26T04:11:40;21.50;85.10
7218;DHT22;3650;53.580;10.094;2023-06-26T04:14:06;21.50;85.20
7218;DHT22;3650;53.580;10.094;2023-06-26T04:16:35;21.50;85.00
7218;DHT22;3650;53.580;10.094;2023-06-26T04:19:02;21.50;84.70
7218;DHT22;3650;53.580;10.094;2023-06-26T04:21:30;21.50;84.40
7218;DHT22;3650;53.580;10.094;2023-06-26T04:23:57;21.60;84.40
7218;DHT22;3650;53.580;10.094;2023-06-26T04:26:24;21.60;83.90
7218;DHT22;3650;53.580;10.094;2023-06-26T04:28:50;21.60;84.50
7218;DHT22;3650;53.580;10.094;2023-06-26T04:31:18;21.70;84.50
7218;DHT22;3650;53.580;10.094;2023-06-26T04:33:46;21.60;83.40
7218;DHT22;3650;53.580;10.094;2023-06-26T04:36:16;21.70;83.40
7218;DHT22;3650;53.580;10.094;2023-06-26T04:38:43;21.70;83.50
7218;DHT22;3650;53.580;10.094;2023-06-26T04:41:10;21.70;82.50
7218;DHT22;3650;53.580;10.094;2023-06-26T04:43:36;21.80;82.00
7218;DHT22;3650;53.580;10.094;2023-06-26T04:46:03;21.80;81.90
7218;DHT22;3650;53.580;10.094;2023-06-26T04:48:30;21.90;81.70
7218;DHT22;3650;53.580;10.094;2023-06-26T04:50:58;21.90;81.70
7218;DHT22;3650;53.580;10.094;2023-06-26T04:53:25;22.00;81.40
7218;DHT22;3650;53.580;10.094;2023-06-26T04:55:52;22.00;81.00
7218;DHT22;3650;53.580;10.094;2023-06-26T04:58:19;22.00;80.50
7218;DHT22;3650;53.580;10.094;2023-06-26T05:00:47;22.00;80.30
7218;DHT22;3650;53.580;10.094;2023-06-26T05:03:16;22.10;79.70
7218;DHT22;3650;53.580;10.094;2023-06-26T05:05:45;22.20;79.30
7218;DHT22;3650;53.580;10.094;2023-06-26T05:08:18;22.20;77.50
7218;DHT22;3650;53.580;10.094;2023-06-26T05:10:45;22.30;77.20
7218;DHT22;3650;53.580;10.094;2023-06-26T05:13:12;22.30;77.50
7218;DHT22;3650;53.580;10.094;2023-06-26T05:15:43;22.40;76.50
7218;DHT22;3650;53.580;10.094;2023-06-26T05:18:10;22.40;76.30
7218;DHT22;3650;53.580;10.094;2023-06-26T05:20:37;22.40;76.00
7218;DHT22;3650;53.580;10.094;2023-06-26T05:23:04;22.40;75.50
7218;DHT22;3650;53.580;10.094;2023-06-26T05:25:33;22.50;74.30
7218;DHT22;3650;53.580;10.094;2023-06-26T05:28:01;22.50;73.70
7218;DHT22;3650;53.580;10.094;2023-06-26T05:30:31;22.60;73.90
7218;DHT22;3650;53.580;10.094;2023-06-26T05:33:01;22.60;73.20
7218;DHT22;3650;53.580;10.094;2023-06-26T05:35:29;22.60;73.00
7218;DHT22;3650;53.580;10.094;2023-06-26T05:37:59;22.70;72.40
7218;DHT22;3650;53.580;10.094;2023-06-26T05:40:27;22.70;72.50
7218;DHT22;3650;53.580;10.094;2023-06-26T05:42:57;22.60;71.80
7218;DHT22;3650;53.580;10.094;2023-06-26T05:45:24;22.80;71.90
7218;DHT22;3650;53.580;10.094;2023-06-26T05:47:51;22.80;72.00
7218;DHT22;3650;53.580;10.094;2023-06-26T05:50:19;22.80;71.90
7218;DHT22;3650;53.580;10.094;2023-06-26T05:52:46;22.90;71.60
7218;DHT22;3650;53.580;10.094;2023-06-26T05:55:13;22.90;71.30
7218;DHT22;3650;53.580;10.094;2023-06-26T05:57:41;22.90;71.00
7218;DHT22;3650;53.580;10.094;2023-06-26T06:00:11;22.90;70.70
7218;DHT22;3650;53.580;10.094;2023-06-26T06:02:40;23.00;70.70
7218;DHT22;3650;53.580;10.094;2023-06-26T06:05:07;23.00;70.60
7218;DHT22;3650;53.580;10.094;2023-06-26T06:07:35;23.00;70.20
7218;DHT22;3650;53.580;10.094;2023-06-26T06:10:03;23.10;69.90
7218;DHT22;3650;53.580;10.094;2023-06-26T06:12:31;23.10;69.30
7218;DHT22;3650;53.580;10.094;2023-06-26T06:14:57;23.10;69.30
7218;DHT22;3650;53.580;10.094;2023-06-26T06:17:26;23.10;69.00
7218;DHT22;3650;53.580;10.094;2023-06-26T06:19:54;23.10;68.70
7218;DHT22;3650;53.580;10.094;2023-06-26T06:22:21;23.20;69.00
7218;DHT22;3650;53.580;10.094;2023-06-26T06:24:50;23.20;68.00
7218;DHT22;3650;53.580;10.094;2023-06-26T06:27:17;23.20;67.50
7218;DHT22;3650;53.580;10.094;2023-06-26T06:29:43;23.20;67.00
7218;DHT22;3650;53.580;10.094;2023-06-26T06:32:10;23.30;67.00
7218;DHT22;3650;53.580;10.094;2023-06-26T06:34:38;23.30;67.00
7218;DHT22;3650;53.580;10.094;2023-06-26T06:37:05;23.30;67.10
7218;DHT22;3650;53.580;10.094;2023-06-26T06:39:32;23.40;67.70
7218;DHT22;3650;53.580;10.094;2023-06-26T06:41:59;23.40;66.20
7218;DHT22;3650;53.580;10.094;2023-06-26T06:44:26;23.40;66.30
7218;DHT22;3650;53.580;10.094;2023-06-26T06:46:53;23.40;66.40
7218;DHT22;3650;53.580;10.094;2023-06-26T06:49:20;23.50;66.40
7218;DHT22;3650;53.580;10.094;2023-06-26T06:51:48;23.50;66.00
7218;DHT22;3650;53.580;10.094;2023-06-26T06:54:16;23.50;65.90
7218;DHT22;3650;53.580;10.094;2023-06-26T06:56:43;23.50;65.60
7218;DHT22;3650;53.580;10.094;2023-06-26T06:59:10;23.60;65.70
7218;DHT22;3650;53.580;10.094;2023-06-26T07:01:37;23.60;65.90
7218;DHT22;3650;53.580;10.094;2023-06-26T07:04:04;23.60;65.60
7218;DHT22;3650;53.580;10.094;2023-06-26T07:06:31;23.70;65.30
7218;DHT22;3650;53.580;10.094;2023-06-26T07:08:59;23.70;65.10
7218;DHT22;3650;53.580;10.094;2023-06-26T07:11:25;23.70;65.00
7218;DHT22;3650;53.580;10.094;2023-06-26T07:13:53;23.80;64.90
7218;DHT22;3650;53.580;10.094;2023-06-26T07:16:19;23.80;64.40
7218;DHT22;3650;53.580;10.094;2023-06-26T07:18:46;23.80;63.90
7218;DHT22;3650;53.580;10.094;2023-06-26T07:21:14;23.80;63.60
7218;DHT22;3650;53.580;10.094;2023-06-26T07:23:41;23.80;63.60
7218;DHT22;3650;53.580;10.094;2023-06-26T07:26:09;23.90;63.60
7218;DHT22;3650;53.580;10.094;2023-06-26T07:28:36;23.90;63.40
7218;DHT22;3650;53.580;10.094;2023-06-26T07:31:03;23.90;63.10
7218;DHT22;3650;53.580;10.094;2023-06-26T07:33:30;24.00;63.50
7218;DHT22;3650;53.580;10.094;2023-06-26T07:35:58;24.00;63.60
7218;DHT22;3650;53.580;10.094;2023-06-26T07:38:24;24.10;62.60
7218;DHT22;3650;53.580;10.094;2023-06-26T07:40:51;24.10;62.50
7218;DHT22;3650;53.580;10.094;2023-06-26T07:43:20;24.10;62.30
7218;DHT22;3650;53.580;10.094;2023-06-26T07:45:48;24.10;62.30
7218;DHT22;3650;53.580;10.094;2023-06-26T07:48:16;24.20;62.30
7218;DHT22;3650;53.580;10.094;2023-06-26T07:50:43;24.20;62.40
7218;DHT22;3650;53.580;10.094;2023-06-26T07:53:10;24.20;62.40
7218;DHT22;3650;53.580;10.094;2023-06-26T07:55:38;24.30;61.40
7218;DHT22;3650;53.580;10.094;2023-06-26T07:58:05;24.30;60.80
7218;DHT22;3650;53.580;10.094;2023-06-26T08:00:33;24.40;60.90
7218;DHT22;3650;53.580;10.094;2023-06-26T08:03:00;24.40;60.90
7218;DHT22;3650;53.580;10.094;2023-06-26T08:05:27;24.40;61.00
7218;DHT22;3650;53.580;10.094;2023-06-26T08:07:53;24.50;61.10
7218;DHT22;3650;53.580;10.094;2023-06-26T08:10:20;24.50;60.30
7218;DHT22;3650;53.580;10.094;2023-06-26T08:12:47;24.50;60.00
7218;DHT22;3650;53.580;10.094;2023-06-26T08:15:16;24.60;59.30
7218;DHT22;3650;53.580;10.094;2023-06-26T08:17:44;24.60;58.90
7218;DHT22;3650;53.580;10.094;2023-06-26T08:20:12;24.60;58.00
7218;DHT22;3650;53.580;10.094;2023-06-26T08:22:39;24.70;57.80
7218;DHT22;3650;53.580;10.094;2023-06-26T08:25:06;24.70;57.60
7218;DHT22;3650;53.580;10.094;2023-06-26T08:27:33;24.70;57.30
7218;DHT22;3650;53.580;10.094;2023-06-26T08:30:01;24.80;57.10
7218;DHT22;3650;53.580;10.094;2023-06-26T08:32:30;24.80;57.00
7218;DHT22;3650;53.580;10.094;2023-06-26T08:34:58;24.80;56.30
7218;DHT22;3650;53.580;10.094;2023-06-26T08:37:25;24.70;56.00
7218;DHT22;3650;53.580;10.094;2023-06-26T08:39:54;24.90;55.70
7218;DHT22;3650;53.580;10.094;2023-06-26T08:42:21;24.90;55.30
7218;DHT22;3650;53.580;10.094;2023-06-26T08:44:48;24.90;55.20
7218;DHT22;3650;53.580;10.094;2023-06-26T08:47:15;25.00;54.90
7218;DHT22;3650;53.580;10.094;2023-06-26T08:49:47;25.00;53.70
7218;DHT22;3650;53.580;10.094;2023-06-26T08:52:23;25.00;52.70
7218;DHT22;3650;53.580;10.094;2023-06-26T08:54:56;25.00;52.30
7218;DHT22;3650;53.580;10.094;2023-06-26T08:57:26;25.10;51.90
7218;DHT22;3650;53.580;10.094;2023-06-26T08:59:53;25.10;51.90
7218;DHT22;3650;53.580;10.094;2023-06-26T09:02:20;25.10;52.20
7218;DHT22;3650;53.580;10.094;2023-06-26T09:04:48;25.20;52.40
7218;DHT22;3650;53.580;10.094;2023-06-26T09:07:15;25.20;50.60
7218;DHT22;3650;53.580;10.094;2023-06-26T09:09:46;25.20;50.40
7218;DHT22;3650;53.580;10.094;2023-06-26T09:12:13;25.20;49.50
7218;DHT22;3650;53.580;10.094;2023-06-26T09:14:41;25.30;48.70
7218;DHT22;3650;53.580;10.094;2023-06-26T09:17:08;25.30;48.30
7218;DHT22;3650;53.580;10.094;2023-06-26T09:19:37;25.40;49.80
7218;DHT22;3650;53.580;10.094;2023-06-26T09:22:04;25.40;49.10
7218;DHT22;3650;53.580;10.094;2023-06-26T09:24:31;25.50;49.10
7218;DHT22;3650;53.580;10.094;2023-06-26T09:26:59;25.50;49.70
7218;DHT22;3650;53.580;10.094;2023-06-26T09:29:28;25.60;50.00
7218;DHT22;3650;53.580;10.094;2023-06-26T09:31:56;25.50;50.60
7218;DHT22;3650;53.580;10.094;2023-06-26T09:34:30;25.60;51.90
7218;DHT22;3650;53.580;10.094;2023-06-26T09:36:59;25.70;50.20
7218;DHT22;3650;53.580;10.094;2023-06-26T09:39:30;25.70;49.90
7218;DHT22;3650;53.580;10.094;2023-06-26T09:41:58;25.70;49.50
7218;DHT22;3650;53.580;10.094;2023-06-26T09:44:27;25.80;48.50
7218;DHT22;3650;53.580;10.094;2023-06-26T09:46:58;25.80;48.80
7218;DHT22;3650;53.580;10.094;2023-06-26T09:49:25;25.70;49.20
7218;DHT22;3650;53.580;10.094;2023-06-26T09:51:53;25.70;50.30
7218;DHT22;3650;53.580;10.094;2023-06-26T09:54:21;25.70;50.50
7218;DHT22;3650;53.580;10.094;2023-06-26T09:56:49;25.80;48.80
7218;DHT22;3650;53.580;10.094;2023-06-26T09:59:17;25.70;49.40
7218;DHT22;3650;53.580;10.094;2023-06-26T10:01:45;25.70;50.70
7218;DHT22;3650;53.580;10.094;2023-06-26T10:04:12;25.60;50.70
7218;DHT22;3650;53.580;10.094;2023-06-26T10:06:43;25.60;51.00
7218;DHT22;3650;53.580;10.094;2023-06-26T10:09:12;25.50;52.00
7218;DHT22;3650;53.580;10.094;2023-06-26T10:11:46;25.40;52.50
7218;DHT22;3650;53.580;10.094;2023-06-26T10:14:17;25.40;52.70
7218;DHT22;3650;53.580;10.094;2023-06-26T10:16:44;25.30;52.80
7218;DHT22;3650;53.580;10.094;2023-06-26T10:19:13;25.40;52.90
7218;DHT22;3650;53.580;10.094;2023-06-26T10:21:41;25.30;52.90
7218;DHT22;3650;53.580;10.094;2023-06-26T10:24:10;25.20;53.40
7218;DHT22;3650;53.580;10.094;2023-06-26T10:26:42;25.20;54.60
7218;DHT22;3650;53.580;10.094;2023-06-26T10:29:11;25.10;57.50
7218;DHT22;3650;53.580;10.094;2023-06-26T10:31:40;25.00;59.50
7218;DHT22;3650;53.580;10.094;2023-06-26T10:34:11;24.90;61.90
7218;DHT22;3650;53.580;10.094;2023-06-26T10:36:38;24.90;61.40
7218;DHT22;3650;53.580;10.094;2023-06-26T10:39:06;24.80;64.20
7218;DHT22;3650;53.580;10.094;2023-06-26T10:41:37;24.70;65.90
7218;DHT22;3650;53.580;10.094;2023-06-26T10:44:08;24.50;66.20
7218;DHT22;3650;53.580;10.094;2023-06-26T10:46:50;24.40;67.00
7218;DHT22;3650;53.580;10.094;2023-06-26T10:49:18;24.30;67.20
7218;DHT22;3650;53.580;10.094;2023-06-26T10:51:49;24.20;69.30
7218;DHT22;3650;53.580;10.094;2023-06-26T10:54:17;24.10;70.30
7218;DHT22;3650;53.580;10.094;2023-06-26T10:56:46;24.00;71.80
7218;DHT22;3650;53.580;10.094;2023-06-26T10:59:17;23.90;73.00
7218;DHT22;3650;53.580;10.094;2023-06-26T11:01:46;23.80;74.10
7218;DHT22;3650;53.580;10.094;2023-06-26T11:04:15;23.70;77.50
7218;DHT22;3650;53.580;10.094;2023-06-26T11:06:45;23.60;78.60
7218;DHT22;3650;53.580;10.094;2023-06-26T11:09:17;23.50;79.80
7218;DHT22;3650;53.580;10.094;2023-06-26T11:11:58;23.50;80.70
7218;DHT22;3650;53.580;10.094;2023-06-26T11:14:30;23.50;82.00
7218;DHT22;3650;53.580;10.094;2023-06-26T11:16:58;23.40;86.80
7218;DHT22;3650;53.580;10.094;2023-06-26T11:19:27;23.30;87.90
7218;DHT22;3650;53.580;10.094;2023-06-26T11:22:02;23.30;88.50
7218;DHT22;3650;53.580;10.094;2023-06-26T11:24:31;23.30;89.00
7218;DHT22;3650;53.580;10.094;2023-06-26T11:27:01;23.20;90.00
7218;DHT22;3650;53.580;10.094;2023-06-26T11:29:30;23.20;91.60
7218;DHT22;3650;53.580;10.094;2023-06-26T11:32:01;23.20;91.80
7218;DHT22;3650;53.580;10.094;2023-06-26T11:34:32;23.10;91.30
7218;DHT22;3650;53.580;10.094;2023-06-26T11:37:00;23.10;90.50
7218;DHT22;3650;53.580;10.094;2023-06-26T11:39:30;23.00;90.10
7218;DHT22;3650;53.580;10.094;2023-06-26T11:41:58;23.00;89.30
7218;DHT22;3650;53.580;10.094;2023-06-26T11:44:30;23.00;87.70
7218;DHT22;3650;53.580;10.094;2023-06-26T11:46:58;23.00;88.10
7218;DHT22;3650;53.580;10.094;2023-06-26T11:49:24;23.00;87.90
7218;DHT22;3650;53.580;10.094;2023-06-26T11:51:54;22.90;86.30
7218;DHT22;3650;53.580;10.094;2023-06-26T11:54:25;22.90;83.30
7218;DHT22;3650;53.580;10.094;2023-06-26T11:56:53;22.90;83.20
7218;DHT22;3650;53.580;10.094;2023-06-26T11:59:22;22.90;84.50
7218;DHT22;3650;53.580;10.094;2023-06-26T12:01:50;22.90;82.50
7218;DHT22;3650;53.580;10.094;2023-06-26T12:04:19;22.90;81.80
7218;DHT22;3650;53.580;10.094;2023-06-26T12:06:56;22.90;79.80
7218;DHT22;3650;53.580;10.094;2023-06-26T12:09:24;22.90;79.50
7218;DHT22;3650;53.580;10.094;2023-06-26T12:11:53;22.90;79.30
7218;DHT22;3650;53.580;10.094;2023-06-26T12:14:21;22.90;73.60
7218;DHT22;3650;53.580;10.094;2023-06-26T12:16:49;22.90;73.30
7218;DHT22;3650;53.580;10.094;2023-06-26T12:19:16;22.80;73.10
7218;DHT22;3650;53.580;10.094;2023-06-26T12:21:48;22.80;73.20
7218;DHT22;3650;53.580;10.094;2023-06-26T12:24:20;22.80;73.10
7218;DHT22;3650;53.580;10.094;2023-06-26T12:26:51;22.80;71.90
7218;DHT22;3650;53.580;10.094;2023-06-26T12:29:20;22.80;71.00
7218;DHT22;3650;53.580;10.094;2023-06-26T12:31:50;22.80;70.30
7218;DHT22;3650;53.580;10.094;2023-06-26T12:34:19;22.90;71.00
7218;DHT22;3650;53.580;10.094;2023-06-26T12:36:47;22.90;72.20
7218;DHT22;3650;53.580;10.094;2023-06-26T12:39:17;23.00;72.10
7218;DHT22;3650;53.580;10.094;2023-06-26T12:41:47;23.00;64.20
7218;DHT22;3650;53.580;10.094;2023-06-26T12:44:19;23.00;62.60
7218;DHT22;3650;53.580;10.094;2023-06-26T12:46:47;23.10;62.30
7218;DHT22;3650;53.580;10.094;2023-06-26T12:49:15;23.10;60.40
7218;DHT22;3650;53.580;10.094;2023-06-26T12:51:42;23.20;57.90
7218;DHT22;3650;53.580;10.094;2023-06-26T12:54:09;23.20;57.00
7218;DHT22;3650;53.580;10.094;2023-06-26T12:56:36;23.20;56.40
7218;DHT22;3650;53.580;10.094;2023-06-26T12:59:04;23.30;55.80
7218;DHT22;3650;53.580;10.094;2023-06-26T13:01:31;23.30;54.20
7218;DHT22;3650;53.580;10.094;2023-06-26T13:04:00;23.30;53.30
7218;DHT22;3650;53.580;10.094;2023-06-26T13:06:27;23.30;51.50
7218;DHT22;3650;53.580;10.094;2023-06-26T13:08:54;23.40;48.70
7218;DHT22;3650;53.580;10.094;2023-06-26T13:11:21;23.50;47.20
7218;DHT22;3650;53.580;10.094;2023-06-26T13:13:48;23.50;45.90
7218;DHT22;3650;53.580;10.094;2023-06-26T13:16:17;23.50;44.80
7218;DHT22;3650;53.580;10.094;2023-06-26T13:18:45;23.50;43.40
7218;DHT22;3650;53.580;10.094;2023-06-26T13:21:14;23.60;44.10
7218;DHT22;3650;53.580;10.094;2023-06-26T13:23:41;23.60;42.90
7218;DHT22;3650;53.580;10.094;2023-06-26T13:26:08;23.60;43.00
7218;DHT22;3650;53.580;10.094;2023-06-26T13:28:35;23.60;41.40
7218;DHT22;3650;53.580;10.094;2023-06-26T13:31:02;23.60;42.90
7218;DHT22;3650;53.580;10.094;2023-06-26T13:33:31;23.70;40.90
7218;DHT22;3650;53.580;10.094;2023-06-26T13:35:58;23.70;40.30
7218;DHT22;3650;53.580;10.094;2023-06-26T13:38:25;23.70;38.70
7218;DHT22;3650;53.580;10.094;2023-06-26T13:40:52;23.80;38.40
7218;DHT22;3650;53.580;10.094;2023-06-26T13:43:20;23.80;39.00
7218;DHT22;3650;53.580;10.094;2023-06-26T13:45:48;23.70;38.10
7218;DHT22;3650;53.580;10.094;2023-06-26T13:48:15;23.70;38.00
7218;DHT22;3650;53.580;10.094;2023-06-26T13:50:48;23.80;38.00
7218;DHT22;3650;53.580;10.094;2023-06-26T13:53:15;23.80;38.90
7218;DHT22;3650;53.580;10.094;2023-06-26T13:55:42;23.80;36.40
7218;DHT22;3650;53.580;10.094;2023-06-26T13:58:09;23.80;37.30
7218;DHT22;3650;53.580;10.094;2023-06-26T14:00:37;23.80;38.20
7218;DHT22;3650;53.580;10.094;2023-06-26T14:03:06;23.80;36.30
7218;DHT22;3650;53.580;10.094;2023-06-26T14:05:34;23.80;36.10
7218;DHT22;3650;53.580;10.094;2023-06-26T14:08:04;23.80;35.60
7218;DHT22;3650;53.580;10.094;2023-06-26T14:10:31;23.80;36.20
7218;DHT22;3650;53.580;10.094;2023-06-26T14:12:59;23.70;36.10
7218;DHT22;3650;53.580;10.094;2023-06-26T14:15:29;23.70;35.80
7218;DHT22;3650;53.580;10.094;2023-06-26T14:17:56;23.70;36.00
7218;DHT22;3650;53.580;10.094;2023-06-26T14:20:23;23.70;36.00
7218;DHT22;3650;53.580;10.094;2023-06-26T14:22:50;23.70;34.60
7218;DHT22;3650;53.580;10.094;2023-06-26T14:25:18;23.80;34.20
7218;DHT22;3650;53.580;10.094;2023-06-26T14:27:45;23.80;34.40
7218;DHT22;3650;53.580;10.094;2023-06-26T14:30:13;23.80;34.00
7218;DHT22;3650;53.580;10.094;2023-06-26T14:32:41;23.70;33.80
7218;DHT22;3650;53.580;10.094;2023-06-26T14:35:08;23.70;35.00
7218;DHT22;3650;53.580;10.094;2023-06-26T14:37:36;23.70;34.20
7218;DHT22;3650;53.580;10.094;2023-06-26T14:40:06;23.70;34.30
7218;DHT22;3650;53.580;10.094;2023-06-26T14:42:34;23.80;34.10
7218;DHT22;3650;53.580;10.094;2023-06-26T14:45:01;23.90;33.70
7218;DHT22;3650;53.580;10.094;2023-06-26T14:47:28;24.10;33.50
7218;DHT22;3650;53.580;10.094;2023-06-26T14:49:55;24.10;33.90
7218;DHT22;3650;53.580;10.094;2023-06-26T14:52:22;24.20;32.50
7218;DHT22;3650;53.580;10.094;2023-06-26T14:54:49;24.40;32.60
7218;DHT22;3650;53.580;10.094;2023-06-26T14:57:16;24.60;32.70
7218;DHT22;3650;53.580;10.094;2023-06-26T14:59:44;24.70;31.20
7218;DHT22;3650;53.580;10.094;2023-06-26T15:02:11;24.80;29.80
7218;DHT22;3650;53.580;10.094;2023-06-26T15:04:38;24.80;29.50
7218;DHT22;3650;53.580;10.094;2023-06-26T15:07:05;24.70;29.30
7218;DHT22;3650;53.580;10.094;2023-06-26T15:09:32;24.60;29.70
7218;DHT22;3650;53.580;10.094;2023-06-26T15:12:02;24.50;30.30
7218;DHT22;3650;53.580;10.094;2023-06-26T15:14:29;24.30;31.40
7218;DHT22;3650;53.580;10.094;2023-06-26T15:16:57;24.20;32.00
7218;DHT22;3650;53.580;10.094;2023-06-26T15:19:24;24.10;32.30
7218;DHT22;3650;53.580;10.094;2023-06-26T15:21:51;24.00;33.40
7218;DHT22;3650;53.580;10.094;2023-06-26T15:24:18;24.00;33.90
7218;DHT22;3650;53.580;10.094;2023-06-26T15:26:44;23.90;34.10
7218;DHT22;3650;53.580;10.094;2023-06-26T15:29:11;23.90;35.20
7218;DHT22;3650;53.580;10.094;2023-06-26T15:31:40;23.90;34.20
7218;DHT22;3650;53.580;10.094;2023-06-26T15:34:08;23.80;33.90
7218;DHT22;3650;53.580;10.094;2023-06-26T15:36:35;23.80;33.90
7218;DHT22;3650;53.580;10.094;2023-06-26T15:39:02;23.80;33.40
7218;DHT22;3650;53.580;10.094;2023-06-26T15:41:29;23.70;33.70
7218;DHT22;3650;53.580;10.094;2023-06-26T15:43:56;23.70;33.40
7218;DHT22;3650;53.580;10.094;2023-06-26T15:46:23;23.60;32.80
7218;DHT22;3650;53.580;10.094;2023-06-26T15:48:49;23.60;33.30